createdAt,value
2023-05-08T02:53:03.138Z,0.857143
2023-05-08T02:54:03.186Z,0.857143
2023-05-08T02:55:06.694Z,0.857143
2023-05-08T02:56:07.186Z,0.857143
2023-05-08T02:57:07.573Z,1.71429
2023-05-08T02:58:07.942Z,2.5
2023-05-08T02:59:09.427Z,2.5
2023-05-08T03:00:09.924Z,3.35714
2023-05-08T03:01:10.034Z,4.21429
2023-05-08T03:02:10.280Z,5
2023-05-08T03:03:11.625Z,5.85714
2023-05-08T03:04:11.807Z,6.71429
2023-05-08T03:05:12.111Z,8.35714
2023-05-08T03:06:12.489Z,9.21429
2023-05-08T03:07:16.506Z,10.8571
2023-05-08T03:08:18.968Z,13.3571
2023-05-08T03:09:19.495Z,15
2023-05-08T03:10:23.029Z,16.7143
2023-05-08T03:11:26.251Z,19.2143
2023-05-08T03:12:29.903Z,21.7143
2023-05-08T03:13:30.113Z,24.2143
2023-05-08T03:14:30.238Z,26.7143
2023-05-08T03:15:30.726Z,30
2023-05-08T03:16:31.855Z,32.5
2023-05-08T03:17:32.094Z,35.8571
2023-05-08T03:18:32.669Z,39.2143
2023-05-08T03:19:33.212Z,43.3571
2023-05-08T03:20:34.504Z,47.5
2023-05-08T03:21:34.876Z,51.7143
2023-05-08T03:22:35.125Z,56.7143
2023-05-08T03:23:35.512Z,61.7143
2023-05-08T03:24:36.953Z,66.7143
2023-05-08T03:25:37.393Z,72.5
2023-05-08T03:26:37.727Z,78.3571
2023-05-08T03:27:38.099Z,84.2143
2023-05-08T03:28:39.156Z,90
2023-05-08T03:29:39.594Z,97.5
2023-05-08T03:30:40.032Z,104.214
2023-05-08T03:31:40.728Z,111.714
2023-05-08T03:32:42.036Z,119.214
2023-05-08T03:33:43.817Z,127.5
2023-05-08T03:34:42.399Z,135
2023-05-08T03:35:42.888Z,143.357
2023-05-08T03:36:44.131Z,152.5
2023-05-08T03:37:44.671Z,161.714
2023-05-08T03:38:46.763Z,170.857
2023-05-08T03:39:45.606Z,180.857
2023-05-08T03:40:46.739Z,190.857
2023-05-08T03:41:47.284Z,200.857
2023-05-08T03:42:47.699Z,211.714
2023-05-08T03:43:50.743Z,223.357
2023-05-08T03:44:49.485Z,235.857
2023-05-08T03:45:51.765Z,250
2023-05-08T03:46:52.495Z,262.5
2023-05-08T03:47:54.037Z,273.357
2023-05-08T03:48:54.244Z,286.714
2023-05-08T03:49:52.955Z,306.714
2023-05-08T03:50:55.013Z,332.5
2023-05-08T03:51:53.781Z,339.214
2023-05-08T03:52:54.948Z,339.214
2023-05-08T03:53:55.168Z,346.714
2023-05-08T03:54:55.663Z,357.5
2023-05-08T03:55:58.837Z,373.357
2023-05-08T03:56:57.769Z,388.357
2023-05-08T03:57:59.754Z,406.714
2023-05-08T03:58:58.409Z,420.857
2023-05-08T03:59:59.445Z,421.714
2023-05-08T04:01:00.534Z,432.5
2023-05-08T04:02:01.084Z,444.214
2023-05-08T04:03:03.372Z,455
2023-05-08T04:04:02.258Z,463.357
2023-05-08T04:05:03.304Z,475
2023-05-08T04:06:03.823Z,485
2023-05-08T04:07:04.508Z,494.214
2023-05-08T04:08:05.600Z,504.214
2023-05-08T04:09:06.646Z,515
2023-05-08T04:10:07.158Z,525
2023-05-08T04:11:07.816Z,535.857
2023-05-08T04:12:08.606Z,549.214
2023-05-08T04:13:09.840Z,560.857
2023-05-08T04:14:10.365Z,573.357
2023-05-08T04:15:10.863Z,582.5
2023-05-08T04:16:12.186Z,591.714
2023-05-08T04:17:12.801Z,597.5
2023-05-08T04:18:13.537Z,603.357
2023-05-08T04:19:13.939Z,609.214
2023-05-08T04:20:14.885Z,615.857
2023-05-08T04:21:15.808Z,623.357
2023-05-08T04:22:16.550Z,633.357
2023-05-08T04:23:17.277Z,642.5
2023-05-08T04:24:18.697Z,645
2023-05-08T04:25:19.606Z,655.857
2023-05-08T04:26:20.276Z,664.214
2023-05-08T04:27:20.906Z,671.714
2023-05-08T04:28:22.138Z,680
2023-05-08T04:29:24.867Z,686.714
2023-05-08T04:30:24.225Z,697.5
2023-05-08T04:31:24.983Z,706.714
2023-05-08T04:32:26.104Z,716.714
2023-05-08T04:33:26.596Z,723.357
2023-05-08T04:34:28.733Z,735.857
2023-05-08T04:35:27.804Z,740.857
2023-05-08T04:36:29.300Z,752.5
2023-05-08T04:37:29.999Z,762.5
2023-05-08T04:38:30.539Z,768.357
2023-05-08T04:39:33.885Z,776.714
2023-05-08T04:40:34.641Z,786.714
2023-05-08T04:41:37.536Z,791.714
2023-05-08T04:42:39.493Z,804.214
2023-05-08T04:43:42.129Z,811.714
2023-05-08T04:44:43.300Z,819.214
2023-05-08T04:45:43.950Z,826.714
2023-05-08T04:46:44.247Z,836.714
2023-05-08T04:47:46.090Z,845.857
2023-05-08T04:48:46.629Z,861.714
2023-05-08T04:49:48.502Z,885
2023-05-08T04:50:50.401Z,911.714
2023-05-08T04:51:51.196Z,906.714
2023-05-08T04:52:52.255Z,901.714
2023-05-08T04:53:53.089Z,900
2023-05-08T04:54:54.785Z,913.357
2023-05-08T04:55:57.342Z,936.714
2023-05-08T04:56:57.246Z,941.714
2023-05-08T04:57:58.805Z,937.5
2023-05-08T04:59:00.121Z,934.214
2023-05-08T05:00:01.086Z,933.357
2023-05-08T05:01:05.235Z,945
2023-05-08T05:02:04.666Z,948.357
2023-05-08T05:03:06.360Z,955
2023-05-08T05:04:09.753Z,961.714
2023-05-08T05:05:11.425Z,970.857
2023-05-08T05:06:15.478Z,1035
2023-05-08T05:07:15.313Z,1090
2023-05-08T05:08:16.994Z,1027.5
2023-05-08T05:09:19.695Z,1006.71
2023-05-08T05:10:22.191Z,1008.36
2023-05-08T05:11:26.361Z,1025.86
2023-05-08T05:12:28.754Z,1029.21
2023-05-08T05:13:30.770Z,1020.86
2023-05-08T05:14:33.855Z,1025.86
2023-05-08T05:15:36.399Z,1043.36
2023-05-08T05:16:39.537Z,1082.5
2023-05-08T05:17:41.094Z,1060
2023-05-08T05:18:42.798Z,1047.5
2023-05-08T05:19:44.836Z,1072.5
2023-05-08T05:20:46.663Z,1115.86
2023-05-08T05:21:49.815Z,1090.86
2023-05-08T05:22:51.765Z,1093.36
2023-05-08T05:23:53.517Z,1069.21
2023-05-08T05:24:56.326Z,1075.86
2023-05-08T05:25:58.824Z,1078.36
2023-05-08T05:27:02.439Z,1092.5
2023-05-08T05:28:04.834Z,1100
2023-05-08T05:29:07.337Z,1106.71
2023-05-08T05:30:08.380Z,1133.36
2023-05-08T05:31:11.203Z,1148.36
2023-05-08T05:32:14.306Z,1169.21
2023-05-08T05:33:17.874Z,1333.36
2023-05-08T05:34:19.296Z,1545
2023-05-08T05:35:23.036Z,1465
2023-05-08T05:36:25.855Z,1321.71
2023-05-08T05:37:24.839Z,1209.21
2023-05-08T05:38:27.857Z,1220
2023-05-08T05:39:31.260Z,1236.71
2023-05-08T05:40:34.078Z,1228.36
2023-05-08T05:41:37.983Z,1242.5
2023-05-08T05:42:40.951Z,1276.71
2023-05-08T05:43:45.132Z,1301.71
2023-05-08T05:44:45.195Z,1353.36
2023-05-08T05:45:48.618Z,1391.71
2023-05-08T05:46:49.656Z,1461.71
2023-05-08T05:48:18.862Z,1637.5
2023-05-08T05:49:18.475Z,1792.5
2023-05-08T05:50:18.470Z,1638.36
2023-05-08T05:51:18.460Z,1805.86
2023-05-08T05:52:18.476Z,1945
2023-05-08T05:53:18.481Z,2380
2023-05-08T05:54:18.476Z,2834.21
2023-05-08T05:55:18.498Z,2906.71
2023-05-08T05:56:18.507Z,2556.71
2023-05-08T05:57:18.501Z,3336.71
2023-05-08T05:58:18.512Z,3654.21
2023-05-08T05:59:18.559Z,3547.5
2023-05-08T06:00:18.546Z,3133.36
2023-05-08T06:01:18.535Z,2768.36
2023-05-08T06:02:18.980Z,2336.71
2023-05-08T06:03:18.716Z,2260.86
2023-05-08T06:04:18.599Z,2228.36
2023-05-08T06:05:18.564Z,3042.5
2023-05-08T06:06:18.572Z,3843.36
2023-05-08T06:07:18.585Z,5102.5
2023-05-08T06:08:18.578Z,6105
2023-05-08T06:09:18.596Z,6285
2023-05-08T06:10:18.641Z,6673.36
2023-05-08T06:11:18.630Z,7542.5
2023-05-08T06:12:18.609Z,7925
2023-05-08T06:13:18.682Z,7958.36
2023-05-08T06:14:18.627Z,8043.36
2023-05-08T06:15:18.631Z,8150
2023-05-08T06:16:18.671Z,8260.86
2023-05-08T06:17:18.646Z,8435
2023-05-08T06:18:18.660Z,8632.5
2023-05-08T06:19:18.666Z,8847.5
2023-05-08T06:20:18.679Z,9055.86
2023-05-08T06:21:05.325Z,9186.71
2023-05-08T06:22:11.579Z,9335
2023-05-08T06:23:10.873Z,9459.21
2023-05-08T06:24:10.882Z,9615
2023-05-08T06:25:11.006Z,9743.36
2023-05-08T06:26:10.894Z,9813.36
2023-05-08T06:27:10.892Z,9862.5
2023-05-08T06:28:10.900Z,9924.21
2023-05-08T06:29:10.924Z,9985.86
2023-05-08T06:30:10.991Z,10061.7
2023-05-08T06:31:11.050Z,10098.4
2023-05-08T06:32:10.939Z,10043.4
2023-05-08T06:33:10.931Z,10004.2
2023-05-08T06:34:10.933Z,9935.86
2023-05-08T06:35:11.122Z,9834.21
2023-05-08T06:36:10.943Z,9680
2023-05-08T06:37:10.966Z,9296.71
2023-05-08T06:38:10.965Z,9157.5
2023-05-08T06:39:10.968Z,9057.5
2023-05-08T06:40:12.506Z,9004.21
2023-05-08T06:41:11.043Z,8984.21
2023-05-08T06:42:11.009Z,9035
2023-05-08T06:43:11.005Z,9075.86
2023-05-08T06:44:11.004Z,9178.36
2023-05-08T06:45:11.254Z,9315.86
2023-05-08T06:46:11.097Z,9451.71
2023-05-08T06:47:11.043Z,9610.86
2023-05-08T06:48:11.064Z,9824.21
2023-05-08T06:49:11.041Z,10110
2023-05-08T06:50:11.060Z,10580.9
2023-05-08T06:51:11.052Z,11469.2
2023-05-08T06:52:11.058Z,12007.5
2023-05-08T06:53:11.059Z,11728.4
2023-05-08T06:54:11.072Z,10975.9
2023-05-08T06:55:11.446Z,10417.5
2023-05-08T06:56:11.099Z,10226.7
2023-05-08T06:57:13.218Z,10111.7
2023-05-08T06:58:11.111Z,10070
2023-05-08T06:59:11.111Z,10010.9
2023-05-08T07:00:11.145Z,9966.71
2023-05-08T07:01:11.163Z,9935.86
2023-05-08T07:02:11.388Z,9880
2023-05-08T07:03:11.192Z,9871.71
2023-05-08T07:04:11.163Z,9921.71
2023-05-08T07:05:11.511Z,10018.4
2023-05-08T07:06:11.177Z,10110.9
2023-05-08T07:07:11.186Z,10206.7
2023-05-08T07:08:11.213Z,10266.7
2023-05-08T07:09:12.044Z,10260.9
2023-05-08T07:10:11.229Z,10251.7
2023-05-08T07:11:11.222Z,10268.4
2023-05-08T07:12:11.225Z,10327.5
2023-05-08T07:13:11.275Z,10410
2023-05-08T07:14:11.256Z,10561.7
2023-05-08T07:15:24.730Z,10711.7
2023-05-08T07:16:11.294Z,10820.9
2023-05-08T07:17:11.323Z,11010
2023-05-08T07:18:11.315Z,11129.2
2023-05-08T07:19:11.316Z,11289.2
2023-05-08T07:20:11.360Z,11381.7
2023-05-08T07:21:11.339Z,11459.2
2023-05-08T07:22:11.392Z,11561.7
2023-05-08T07:23:11.349Z,11633.4
2023-05-08T07:24:11.354Z,11683.4
2023-05-08T07:25:11.746Z,11779.2
2023-05-08T07:26:11.393Z,11907.5
2023-05-08T07:27:11.394Z,12060
2023-05-08T07:28:11.403Z,12237.5
2023-05-08T07:29:11.421Z,12416.7
2023-05-08T07:30:11.420Z,12529.2
2023-05-08T07:31:11.576Z,12656.7
2023-05-08T07:32:11.470Z,12781.7
2023-05-08T07:33:11.472Z,12869.2
2023-05-08T07:34:11.484Z,13011.7
2023-05-08T07:35:11.678Z,13221.7
2023-05-08T07:36:11.505Z,13522.5
2023-05-08T07:37:11.512Z,13934.2
2023-05-08T07:38:11.524Z,14448.4
2023-05-08T07:39:11.542Z,14995.9
2023-05-08T07:40:11.593Z,15665.9
2023-05-08T07:41:11.626Z,16385.9
2023-05-08T07:42:11.592Z,17104.2
2023-05-08T07:43:11.601Z,17689.2
2023-05-08T07:44:11.618Z,18090.9
2023-05-08T07:45:11.897Z,18495
2023-05-08T07:46:11.650Z,17458.4
2023-05-08T07:47:11.799Z,18652.5
2023-05-08T07:48:11.744Z,19029.2
2023-05-08T07:49:11.682Z,19616.7
2023-05-08T07:50:11.708Z,13915.9
2023-05-08T07:51:11.734Z,17739.2
2023-05-08T07:52:11.742Z,17649.2
2023-05-08T07:53:11.787Z,21535
2023-05-08T07:54:11.782Z,18971.7
2023-05-08T07:55:12.033Z,18166.7
2023-05-08T07:56:11.815Z,15597.5
2023-05-08T07:57:11.920Z,8929.21
2023-05-08T07:58:11.877Z,6463.36
2023-05-08T07:59:11.889Z,8219.21
2023-05-08T08:00:11.898Z,7597.5
2023-05-08T08:01:11.934Z,5872.5
2023-05-08T08:02:12.001Z,6485
2023-05-08T08:03:12.124Z,6706.71
2023-05-08T08:04:14.722Z,6602.5
2023-05-08T08:05:12.464Z,6762.5
2023-05-08T08:06:12.046Z,8381.71
2023-05-08T08:07:12.047Z,9449.21
2023-05-08T08:08:12.091Z,9139.21
2023-05-08T08:09:12.129Z,9304.21
2023-05-08T08:10:12.138Z,8546.71
2023-05-08T08:11:12.159Z,9965.86
2023-05-08T08:12:12.175Z,8334.21
2023-05-08T08:13:12.235Z,11754.2
2023-05-08T08:14:12.241Z,12680.9
2023-05-08T08:15:12.517Z,12417.5
2023-05-08T08:16:12.281Z,15124.2
2023-05-08T08:17:12.354Z,14962.5
2023-05-08T08:18:12.373Z,15180
2023-05-08T08:19:12.384Z,11666.7
2023-05-08T08:20:12.420Z,11081.7
2023-05-08T08:21:12.459Z,8863.36
2023-05-08T08:21:43.631Z,7508.36
2023-05-08T08:22:42.872Z,7283.36
2023-05-08T08:24:10.012Z,5847.5
2023-05-08T08:25:10.125Z,7360.86
2023-05-08T08:26:10.026Z,9273.36
2023-05-08T08:27:10.031Z,10298.4
2023-05-08T08:28:10.022Z,10783.4
2023-05-08T08:28:37.838Z,8975.86
2023-05-08T08:29:37.811Z,7692.5
2023-05-08T08:30:37.827Z,6708.36
2023-05-08T08:31:03.486Z,7754.21
2023-05-08T08:31:59.823Z,9279.21
2023-05-08T08:32:59.157Z,11128.4
2023-05-08T08:33:59.142Z,11623.4
2023-05-08T08:34:59.160Z,11041.7
2023-05-08T08:35:59.180Z,11324.2
2023-05-08T08:36:59.170Z,17320.9
2023-05-08T08:37:59.177Z,17820.9
2023-05-08T08:38:59.188Z,14407.5
2023-05-08T08:39:59.197Z,21742.5
2023-05-08T08:40:59.208Z,18824.2
2023-05-08T08:41:59.201Z,19462.5
2023-05-08T08:42:59.213Z,21895
2023-05-08T08:43:59.234Z,22654.2
2023-05-08T08:44:59.260Z,27854.2
2023-05-08T08:45:59.404Z,28395.9
2023-05-08T08:46:59.237Z,17470.9
2023-05-08T08:47:59.289Z,14148.4
2023-05-08T08:48:59.254Z,10105
2023-05-08T08:49:59.283Z,8182.5
2023-05-08T08:50:59.284Z,6996.71
2023-05-08T08:51:09.739Z,6515.86
2023-05-08T08:52:09.391Z,9340
2023-05-08T08:52:33.822Z,13747.5
2023-05-08T08:53:33.258Z,11955
2023-05-08T08:54:33.275Z,11955
2023-05-08T08:54:53.741Z,2232.5
2023-05-08T08:55:53.836Z,1525
2023-05-08T08:56:53.760Z,1502.5
2023-05-08T08:57:20.405Z,1495
2023-05-08T08:58:20.372Z,1476.71
2023-05-08T08:59:20.379Z,1476.71
2023-05-08T09:00:20.422Z,1476.71
2023-05-08T09:00:50.266Z,1483.36
2023-05-08T09:01:50.338Z,1465
2023-05-08T09:02:50.503Z,1448.36
2023-05-08T09:03:50.375Z,1448.36
2023-05-08T09:05:07.023Z,1430.86
2023-05-08T09:06:07.047Z,1415.86
2023-05-08T09:07:07.039Z,1418.36
2023-05-08T09:08:07.095Z,1418.36
2023-05-08T09:09:07.162Z,1418.36
2023-05-08T09:10:00.807Z,1409.21
2023-05-08T09:10:37.617Z,1410.86
2023-05-08T09:11:37.666Z,1401.71
2023-05-08T09:12:12.153Z,1401.71
2023-05-08T09:13:11.596Z,1403.36
2023-05-08T09:14:11.565Z,1395.86
2023-05-08T09:15:11.722Z,1386.71
2023-05-08T09:16:11.625Z,1372.5
2023-05-08T09:17:11.585Z,1367.5
2023-05-08T09:18:11.624Z,1365
2023-05-08T09:19:11.606Z,1362.5
2023-05-08T09:20:12.068Z,1360
2023-05-08T09:21:11.631Z,1356.71
2023-05-08T09:22:11.629Z,1341.71
2023-05-08T09:23:11.642Z,1335.86
2023-05-08T09:24:11.652Z,1325.86
2023-05-08T09:25:11.856Z,1322.5
2023-05-08T09:26:11.645Z,1320.86
2023-05-08T09:27:11.657Z,1311.71
2023-05-08T09:28:11.667Z,1309.21
2023-05-08T09:29:11.793Z,1307.5
2023-05-08T09:30:11.719Z,1307.5
2023-05-08T09:31:11.754Z,1302.5
2023-05-08T09:32:11.704Z,1297.5
2023-05-08T09:33:11.715Z,1294.21
2023-05-08T09:34:11.709Z,1283.36
2023-05-08T09:35:11.835Z,1277.5
2023-05-08T09:36:11.716Z,1277.5
2023-05-08T09:37:11.737Z,1272.5
2023-05-08T09:38:11.736Z,1271.71
2023-05-08T09:39:11.743Z,1274.21
2023-05-08T09:40:11.768Z,1280
2023-05-08T09:41:11.784Z,1273.36
2023-05-08T09:42:11.760Z,1265.86
2023-05-08T09:43:11.770Z,1258.36
2023-05-08T09:44:11.772Z,1252.5
2023-05-08T09:45:12.144Z,1247.5
2023-05-08T09:46:11.857Z,1244.21
2023-05-08T09:47:11.811Z,1240
2023-05-08T09:48:11.830Z,1232.5
2023-05-08T09:49:11.813Z,1226.71
2023-05-08T09:50:11.898Z,1229.21
2023-05-08T09:51:11.843Z,1228.36
2023-05-08T09:52:11.869Z,1230.86
2023-05-08T09:53:11.833Z,1232.5
2023-05-08T09:54:11.846Z,1229.21
2023-05-08T09:55:11.859Z,1220.86
2023-05-08T09:56:11.901Z,1219.21
2023-05-08T09:57:11.901Z,1208.36
2023-05-08T09:58:11.879Z,1208.36
2023-05-08T09:59:11.884Z,1206.71
2023-05-08T10:00:12.132Z,1191.71
2023-05-08T10:01:11.974Z,1182.5
2023-05-08T10:02:11.931Z,1182.5
2023-05-08T10:03:11.967Z,1184.21
2023-05-08T10:04:12.001Z,1185
2023-05-08T10:05:11.977Z,1179.21
2023-05-08T10:06:11.987Z,1173.36
2023-05-08T10:07:11.977Z,1163.36
2023-05-08T10:08:11.974Z,1151.71
2023-05-08T10:09:12.059Z,1149.21
2023-05-08T10:10:12.215Z,1154.21
2023-05-08T10:11:12.010Z,1155
2023-05-08T10:12:12.031Z,1155.86
2023-05-08T10:13:12.072Z,1152.5
2023-05-08T10:14:12.046Z,1151.71
2023-05-08T10:15:12.051Z,1149.21
2023-05-08T10:16:12.179Z,1143.36
2023-05-08T10:17:12.182Z,1133.36
2023-05-08T10:18:12.278Z,1127.5
2023-05-08T10:19:12.109Z,1123.36
2023-05-08T10:20:12.309Z,1118.36
2023-05-08T10:21:12.125Z,1113.36
2023-05-08T10:22:12.130Z,1110
2023-05-08T10:23:12.176Z,1112.5
2023-05-08T10:24:12.159Z,1114.21
2023-05-08T10:25:12.344Z,1113.36
2023-05-08T10:26:12.188Z,1107.5
2023-05-08T10:27:12.195Z,1096.71
2023-05-08T10:28:12.256Z,1096.71
2023-05-08T10:29:12.212Z,1080
2023-05-08T10:30:12.404Z,1074.21
2023-05-08T10:31:12.276Z,1066.71
2023-05-08T10:32:12.245Z,1060
2023-05-08T10:33:12.317Z,1062.5
2023-05-08T10:34:12.292Z,1062.5
2023-05-08T10:35:12.304Z,1057.5
2023-05-08T10:36:12.294Z,1048.36
2023-05-08T10:37:12.305Z,1044.21
2023-05-08T10:38:12.328Z,1044.21
2023-05-08T10:39:12.351Z,1041.71
2023-05-08T10:40:12.558Z,1039.21
2023-05-08T10:41:12.366Z,1040.86
2023-05-08T10:42:12.366Z,1044.21
2023-05-08T10:43:12.358Z,1044.21
2023-05-08T10:44:12.388Z,1040.86
2023-05-08T10:45:12.539Z,1036.71
2023-05-08T10:46:12.452Z,1035.86
2023-05-08T10:47:12.412Z,1034.21
2023-05-08T10:48:12.473Z,1029.21
2023-05-08T10:49:12.441Z,1026.71
2023-05-08T10:50:12.764Z,1024.21
2023-05-08T10:51:12.474Z,1020
2023-05-08T10:52:12.473Z,1013.36
2023-05-08T10:53:12.511Z,1007.5
2023-05-08T10:54:12.515Z,998.357
2023-05-08T10:55:12.530Z,999.214
2023-05-08T10:56:12.538Z,998.357
2023-05-08T10:57:12.586Z,998.357
2023-05-08T10:58:12.584Z,996.714
2023-05-08T10:59:12.579Z,991.714
2023-05-08T11:00:12.794Z,992.5
2023-05-08T11:01:12.654Z,990
2023-05-08T11:02:12.736Z,990
2023-05-08T11:03:23.675Z,985
2023-05-08T11:04:12.791Z,981.714
2023-05-08T11:05:12.684Z,976.714
2023-05-08T11:06:12.685Z,975.857
2023-05-08T11:07:12.696Z,977.5
2023-05-08T11:08:12.702Z,978.357
2023-05-08T11:09:12.715Z,972.5
2023-05-08T11:10:12.951Z,960
2023-05-08T11:11:12.756Z,949.214
2023-05-08T11:12:12.758Z,944.214
2023-05-08T11:13:12.797Z,944.214
2023-05-08T11:14:12.782Z,942.5
2023-05-08T11:15:12.791Z,935.857
2023-05-08T11:16:12.858Z,937.5
2023-05-08T11:17:12.840Z,937.5
2023-05-08T11:18:12.897Z,935
2023-05-08T11:19:12.860Z,932.5
2023-05-08T11:20:13.091Z,931.714
2023-05-08T11:21:12.890Z,929.214
2023-05-08T11:22:12.933Z,927.5
2023-05-08T11:23:12.938Z,924.214
2023-05-08T11:24:12.968Z,925
2023-05-08T11:25:12.974Z,925
2023-05-08T11:25:22.622Z,924.214
2023-05-08T11:26:52.742Z,920.857
2023-05-08T11:27:52.747Z,919.214
2023-05-08T11:28:52.749Z,918.357
2023-05-08T11:29:52.771Z,915.857
2023-05-08T11:30:52.756Z,913.357
2023-05-08T11:31:52.897Z,911.714
2023-05-08T11:32:52.806Z,907.5
2023-05-08T11:33:52.787Z,901.714
2023-05-08T11:34:52.803Z,901.714
2023-05-08T11:35:52.809Z,900.857
2023-05-08T11:36:52.799Z,900
2023-05-08T11:37:52.801Z,897.5
2023-05-08T11:38:53.836Z,897.5
2023-05-08T11:39:52.847Z,892.5
2023-05-08T11:40:52.828Z,890
2023-05-08T11:41:52.835Z,886.714
2023-05-08T11:42:52.849Z,883.357
2023-05-08T11:43:52.860Z,882.5
2023-05-08T11:44:52.875Z,881.714
2023-05-08T11:45:52.874Z,876.714
2023-05-08T11:46:52.977Z,870
2023-05-08T11:47:52.952Z,866.714
2023-05-08T11:48:52.892Z,866.714
2023-05-08T11:49:52.918Z,869.214
2023-05-08T11:50:52.910Z,865.857
2023-05-08T11:51:52.926Z,864.214
2023-05-08T11:52:52.939Z,863.357
2023-05-08T11:53:52.966Z,860
2023-05-08T11:54:52.959Z,858.357
2023-05-08T11:55:52.982Z,858.357
2023-05-08T11:56:53.971Z,859.214
2023-05-08T11:57:52.968Z,859.214
2023-05-08T11:58:52.975Z,860.857
2023-05-08T11:59:53.013Z,860
2023-05-08T12:00:53.071Z,859.214
2023-05-08T12:02:53.060Z,853.357
2023-05-08T12:03:53.146Z,850.857
2023-05-08T12:04:53.123Z,848.357
2023-05-08T12:05:53.058Z,843.357
2023-05-08T12:06:53.040Z,840.857
2023-05-08T12:07:53.056Z,840.857
2023-05-08T12:08:53.059Z,837.5
2023-05-08T12:09:53.076Z,835
2023-05-08T12:10:53.084Z,833.357
2023-05-08T12:11:53.105Z,835.857
2023-05-08T12:12:53.118Z,834.214
2023-05-08T12:13:53.101Z,830
2023-05-08T12:14:53.113Z,827.5
2023-05-08T12:15:53.117Z,827.5
2023-05-08T12:16:53.239Z,827.5
2023-05-08T12:17:53.200Z,825.857
2023-05-08T12:18:53.149Z,830
2023-05-08T12:19:53.160Z,827.5
2023-05-08T12:20:53.178Z,828.357
2023-05-08T12:21:53.178Z,830.857
2023-05-08T12:22:53.200Z,830.857
2023-05-08T12:23:53.199Z,830
2023-05-08T12:24:53.201Z,825
2023-05-08T12:25:55.113Z,825
2023-05-08T12:26:53.234Z,823.357
2023-05-08T12:27:53.220Z,822.5
2023-05-08T12:28:53.332Z,818.357
2023-05-08T12:29:53.233Z,815
2023-05-08T12:30:53.267Z,810.857
2023-05-08T12:31:53.267Z,806.714
2023-05-08T12:32:53.401Z,805.857
2023-05-08T12:33:53.315Z,806.714
2023-05-08T12:34:53.305Z,805
2023-05-08T12:35:53.308Z,804.214
2023-05-08T12:36:53.320Z,801.714
2023-05-08T12:37:53.337Z,800.857
2023-05-08T12:38:53.350Z,801.714
2023-05-08T12:39:53.348Z,801.714
2023-05-08T12:40:53.354Z,802.5
2023-05-08T12:41:53.352Z,801.714
2023-05-08T12:42:53.378Z,800
2023-05-08T12:43:53.396Z,796.714
2023-05-08T12:44:53.412Z,795.857
2023-05-08T12:45:53.416Z,792.5
2023-05-08T12:46:53.612Z,791.714
2023-05-08T12:47:53.496Z,791.714
2023-05-08T12:48:53.454Z,792.5
2023-05-08T12:49:53.528Z,793.357
2023-05-08T12:50:53.453Z,790
2023-05-08T12:51:53.472Z,785.857
2023-05-08T12:52:53.477Z,782.5
2023-05-08T12:53:53.516Z,784.214
2023-05-08T12:54:53.496Z,783.357
2023-05-08T12:55:53.502Z,784.214
2023-05-08T12:56:53.516Z,781.714
2023-05-08T12:57:53.519Z,778.357
2023-05-08T12:58:53.556Z,775.857
2023-05-08T12:59:53.559Z,772.5
2023-05-08T13:00:53.565Z,771.714
2023-05-08T13:01:53.598Z,772.5
2023-05-08T13:02:53.621Z,771.714
2023-05-08T13:04:01.614Z,769.214
2023-05-08T13:04:53.694Z,770
2023-05-08T13:05:53.616Z,771.714
2023-05-08T13:06:53.634Z,771.714
2023-05-08T13:07:53.646Z,772.5
2023-05-08T13:08:53.650Z,771.714
2023-05-08T13:09:53.701Z,770.857
2023-05-08T13:10:53.680Z,770.857
2023-05-08T13:11:53.696Z,769.214
2023-05-08T13:12:53.735Z,767.5
2023-05-08T13:13:53.725Z,767.5
2023-05-08T13:14:53.754Z,765
2023-05-08T13:15:53.766Z,764.214
2023-05-08T13:16:53.815Z,760.857
2023-05-08T13:17:53.826Z,758.357
2023-05-08T13:18:53.824Z,756.714
2023-05-08T13:19:53.820Z,755.857
2023-05-08T13:20:53.822Z,755
2023-05-08T13:21:53.835Z,753.357
2023-05-08T13:22:53.850Z,753.357
2023-05-08T13:23:53.884Z,755.857
2023-05-08T13:24:53.878Z,755
2023-05-08T13:25:53.885Z,755.857
2023-05-08T13:26:53.899Z,755
2023-05-08T13:27:53.907Z,754.214
2023-05-08T13:28:56.256Z,753.357
2023-05-08T13:29:53.930Z,751.714
2023-05-08T13:30:53.934Z,750
2023-05-08T13:31:53.982Z,749.214
2023-05-08T13:32:54.010Z,746.714
2023-05-08T13:33:54.019Z,746.714
2023-05-08T13:34:57.546Z,743.357
2023-05-08T13:35:54.048Z,740.857
2023-05-08T13:36:54.033Z,741.714
2023-05-08T13:37:54.057Z,740
2023-05-08T13:38:54.065Z,737.5
2023-05-08T13:39:54.114Z,735
2023-05-08T13:40:54.087Z,734.214
2023-05-08T13:41:54.101Z,734.214
2023-05-08T13:42:54.119Z,733.357
2023-05-08T13:43:54.143Z,730.857
2023-05-08T13:44:54.164Z,729.214
2023-05-08T13:45:54.217Z,728.357
2023-05-08T13:46:54.176Z,725.857
2023-05-08T13:47:54.244Z,725
2023-05-08T13:48:54.210Z,725
2023-05-08T13:49:54.221Z,724.214
2023-05-08T13:50:54.262Z,724.214
2023-05-08T13:51:57.268Z,723.357
2023-05-08T13:52:55.205Z,720.857
2023-05-08T13:53:54.285Z,720.857
2023-05-08T13:54:54.296Z,719.214
2023-05-08T13:55:54.347Z,718.357
2023-05-08T13:56:12.154Z,716.714
2023-05-08T13:57:38.700Z,715.857
2023-05-08T13:58:38.711Z,715.857
2023-05-08T13:59:38.704Z,712.5
2023-05-08T14:00:38.702Z,710.857
2023-05-08T14:01:38.733Z,710
2023-05-08T14:02:38.758Z,710.857
2023-05-08T14:03:38.808Z,709.214
2023-05-08T14:04:38.742Z,709.214
2023-05-08T14:05:38.738Z,709.214
2023-05-08T14:06:38.771Z,707.5
2023-05-08T14:07:38.756Z,709.214
2023-05-08T14:08:45.197Z,705.857
2023-05-08T14:09:38.782Z,703.357
2023-05-08T14:10:38.811Z,702.5
2023-05-08T14:11:38.792Z,700.857
2023-05-08T14:12:38.844Z,700.857
2023-05-08T14:13:38.793Z,700.857
2023-05-08T14:14:38.799Z,700.857
2023-05-08T14:15:38.850Z,700
2023-05-08T14:16:38.858Z,699.214
2023-05-08T14:17:38.839Z,697.5
2023-05-08T14:18:38.822Z,695.857
2023-05-08T14:19:38.831Z,695
2023-05-08T14:20:38.863Z,695.857
2023-05-08T14:21:38.853Z,695
2023-05-08T14:22:38.851Z,695
2023-05-08T14:23:38.886Z,695
2023-05-08T14:24:38.885Z,693.357
2023-05-08T14:25:38.890Z,693.357
2023-05-08T14:26:39.661Z,693.357
2023-05-08T14:27:38.909Z,691.714
2023-05-08T14:28:38.906Z,690
2023-05-08T14:29:38.910Z,689.214
2023-05-08T14:30:38.940Z,688.357
2023-05-08T14:31:39.076Z,686.714
2023-05-08T14:32:39.026Z,686.714
2023-05-08T14:33:38.963Z,685.857
2023-05-08T14:34:38.978Z,685.857
2023-05-08T14:35:39.006Z,685
2023-05-08T14:36:39.085Z,683.357
2023-05-08T14:37:38.996Z,682.5
2023-05-08T14:38:38.995Z,680
2023-05-08T14:39:39.001Z,675.857
2023-05-08T14:40:39.026Z,674.214
2023-05-08T14:41:39.113Z,672.5
2023-05-08T14:42:39.029Z,670
2023-05-08T14:43:39.035Z,664.214
2023-05-08T14:44:39.073Z,668.357
2023-05-08T14:45:39.058Z,670
2023-05-08T14:46:39.184Z,671.714
2023-05-08T14:47:39.128Z,670.857
2023-05-08T14:48:39.095Z,668.357
2023-05-08T14:49:39.174Z,669.214
2023-05-08T14:50:39.100Z,669.214
2023-05-08T14:51:39.121Z,667.5
2023-05-08T14:52:39.122Z,666.714
2023-05-08T14:53:39.178Z,667.5
2023-05-08T14:54:39.247Z,665
2023-05-08T14:55:39.370Z,666.714
2023-05-08T14:57:39.159Z,665.857
2023-05-08T14:58:39.178Z,665
2023-05-08T15:00:39.182Z,658.357
2023-05-08T15:01:39.285Z,656.714
2023-05-08T15:02:39.299Z,655.857
2023-05-08T15:03:39.371Z,654.214
2023-05-08T15:04:39.221Z,650.857
2023-05-08T15:05:39.238Z,649.214
2023-05-08T15:06:39.275Z,646.714
2023-05-08T15:07:41.534Z,645
2023-05-08T15:08:39.272Z,645.857
2023-05-08T15:09:39.284Z,644.214
2023-05-08T15:10:39.285Z,644.214
2023-05-08T15:11:39.315Z,642.5
2023-05-08T15:12:39.355Z,637.5
2023-05-08T15:13:39.314Z,634.214
2023-05-08T15:14:39.326Z,633.357
2023-05-08T15:15:39.325Z,630.857
2023-05-08T15:16:39.414Z,627.5